CST,Max TemperatureF,Mean TemperatureF,Min TemperatureF,Max Dew PointF,MeanDew PointF,Min DewpointF,Max Humidity, Mean Humidity, Min Humidity, Max Sea Level PressureIn, Mean Sea Level PressureIn, Min Sea Level PressureIn, Max VisibilityMiles, Mean VisibilityMiles, Min VisibilityMiles, Max Wind SpeedMPH, Mean Wind SpeedMPH, Max Gust SpeedMPH,PrecipitationIn, CloudCover, Events, WindDirDegrees
2013-12-1,52,41,29,34,30,28,92,68,44,30.13,30.06,29.96,10,9,5,9,5,12,0.00,0,,324
2013-12-2,48,39,30,41,36,28,92,79,66,29.94,29.80,29.72,7,5,3,12,6,14,T,6,Rain,101
2013-12-3,54,44,33,50,44,32,100,92,83,29.73,29.71,29.66,9,3,0,20,9,25,0.00,4,Fog,169
2013-12-4,62,52,42,55,47,37,100,86,71,29.81,29.68,29.53,10,5,0,23,12,31,T,6,Fog,176
2013-12-5,43,33,23,34,19,11,82,70,57,30.30,30.10,29.82,10,10,8,21,13,26,T,7,Rain,302
2013-12-6,23,19,14,12,9,5,68,62,56,30.60,30.42,30.30,10,10,10,20,12,22,0.00,6,,344
2013-12-7,25,17,9,8,5,3,76,58,40,30.73,30.64,30.54,10,10,10,16,9,22,0.00,0,,13
2013-12-8,27,23,18,25,20,8,92,77,61,30.50,30.16,30.00,10,4,1,21,12,24,T,8,Rain-Snow,122
2013-12-9,26,21,15,22,14,5,81,70,59,30.30,30.22,30.06,10,10,7,20,11,28,0.00,6,,284
2013-12-10,31,19,6,12,8,3,83,63,43,30.36,30.27,30.21,10,10,10,26,9,33,0.00,0,,255
2013-12-11,29,18,6,17,8,-4,83,65,46,30.66,30.47,30.31,10,10,7,23,10,28,T,2,Snow,298
2013-12-12,32,17,2,11,4,-5,75,56,36,30.64,30.47,30.28,10,10,10,22,9,26,0.00,0,,215
2013-12-13,43,31,18,31,24,12,92,66,40,30.26,30.11,30.02,10,6,1,17,8,23,T,5,Rain-Snow,162
2013-12-14,34,29,24,32,29,20,96,87,78,30.09,29.94,29.84,10,4,0,22,13,28,0.27,8,Fog-Rain-Snow,21
2013-12-15,25,20,15,19,16,10,92,82,71,30.17,30.11,30.06,10,6,2,21,10,28,T,7,Snow,286
2013-12-16,25,21,17,23,18,13,96,88,80,30.14,30.08,30.01,10,3,0,18,9,22,T,8,Fog-Snow,59
2013-12-17,35,29,22,28,22,12,96,75,53,30.24,30.14,30.08,10,4,0,17,10,25,0.19,6,Fog-Snow,266
2013-12-18,40,26,12,32,18,7,80,66,52,30.27,30.12,29.94,10,10,10,29,14,35,0.00,0,,207
2013-12-19,49,44,38,44,38,32,92,82,71,29.96,29.89,29.80,10,10,9,21,13,25,T,4,,192
2013-12-20,63,48,32,57,42,30,96,90,83,29.86,29.79,29.69,10,7,2,23,12,31,0.11,8,Rain,260
2013-12-21,36,34,32,36,31,29,100,93,85,29.85,29.75,29.51,10,6,2,21,10,24,0.93,8,Rain,1
2013-12-22,36,31,25,36,30,19,100,89,78,30.23,29.90,29.59,10,8,2,18,11,24,0.04,8,Rain-Snow,283
2013-12-23,25,16,7,20,10,-4,84,74,63,30.57,30.44,30.21,10,10,7,21,13,26,T,6,Snow,292
2013-12-24,21,13,4,11,3,-5,76,68,59,30.65,30.55,30.40,10,10,10,18,9,25,0.00,2,,225
2013-12-25,32,27,21,27,21,11,78,69,60,30.39,30.27,30.19,10,10,9,20,12,26,0.00,8,,227
2013-12-26,41,31,20,27,24,18,92,70,48,30.39,30.30,30.25,10,10,10,17,10,23,0.00,3,,231
2013-12-27,47,36,25,32,28,22,85,69,53,30.37,30.30,30.21,10,10,10,18,10,22,0.00,0,,217
2013-12-28,54,44,34,34,30,28,76,59,41,30.22,30.09,29.92,10,10,10,18,12,24,0.00,0,,205
2013-12-29,39,26,13,30,22,7,92,78,64,30.26,30.03,29.84,10,8,3,25,13,32,T,6,Snow,289
2013-12-30,21,13,4,11,3,-2,83,66,49,30.38,30.30,30.23,10,9,3,18,6,22,T,6,Snow,275
2013-12-31,33,26,18,21,14,10,88,69,50,30.41,30.28,30.21,10,10,10,15,7,23,0.00,2,,253